Hanseatic Scout — V2BM2 — position and weather

sailwx.info

Track history (hours):
 
Tides and Currents Weather Stations Pressure Air Temp Water Temp Dewpoint Dewpoint Depression Visibility Wind Speed Wind Dir Waves Ship Positions

Hanseatic Scout

Last reported at 2015-Jan-24 17:16 UTC. Time now 2015-Jan-26 00:27 UTC.
Position N 51°24' W 007°38'.

Length 89 m; draft 5.7 m.

Type: Ship (hazmat cat C). MMSI: 304867000.

Date/timePositionNaut miles runAvg speedWind from/ knotsBaromVisibWave heightAir tempDewpointWater temp
2015-Jan-24 17:16N 51°24' W 007°38'810.6
2015-Jan-24 16:32N 51°29' W 007°47'1010.5
2015-Jan-24 15:33N 51°36' W 007°59'1110.6
2015-Jan-24 14:33N 51°44' W 008°11'8 8.4
2015-Jan-24 13:33N 51°51' W 008°19'2 1.6
2015-Jan-24 12:32N 51°52' W 008°20'0 0.0
2015-Jan-24 11:32N 51°52' W 008°20'0 0.0
2015-Jan-24 10:32N 51°52' W 008°20'0 0.0
2015-Jan-24 09:32N 51°52' W 008°20'0 0.0
2015-Jan-24 08:32N 51°52' W 008°20'0 0.0
2015-Jan-24 07:32N 51°52' W 008°20'0 0.0
2015-Jan-24 06:32N 51°52' W 008°20'0 0.0
2015-Jan-24 05:32N 51°52' W 008°20'0 0.0
2015-Jan-24 04:32N 51°52' W 008°20'0 0.0
2015-Jan-24 03:32N 51°52' W 008°20'0 0.0
2015-Jan-24 02:32N 51°52' W 008°20'0 0.0
2015-Jan-24 01:32N 51°52' W 008°20'0 0.0
2015-Jan-24 00:32N 51°52' W 008°20'0 0.0
2015-Jan-23 23:32N 51°52' W 008°20'0 0.0
2015-Jan-23 22:32N 51°52' W 008°20'0 0.0
2015-Jan-23 21:32N 51°52' W 008°20'0 0.0
2015-Jan-23 20:32N 51°52' W 008°20'0 0.0
2015-Jan-23 19:32N 51°52' W 008°20'0 0.0
2015-Jan-23 18:32N 51°52' W 008°20'0 0.0
2015-Jan-23 17:32N 51°52' W 008°20'0 0.0
2015-Jan-23 16:32N 51°52' W 008°20'0 0.0
2015-Jan-23 15:32N 51°52' W 008°20'0 0.0
2015-Jan-23 14:32N 51°52' W 008°20'0 0.0
2015-Jan-23 13:32N 51°52' W 008°20'0 0.0
2015-Jan-23 12:32N 51°52' W 008°20'0 0.0
2015-Jan-23 11:32N 51°52' W 008°20'0 0.0
2015-Jan-23 10:32N 51°52' W 008°20'0 0.0
2015-Jan-23 09:32N 51°52' W 008°20'2 2.2
2015-Jan-23 08:33N 51°51' W 008°17'8 8.0
2015-Jan-23 07:33N 51°45' W 008°08'9 8.8
2015-Jan-23 06:33N 51°47' W 007°54'9 9.2
2015-Jan-23 05:33N 51°50' W 007°40'10 9.7
2015-Jan-23 04:33N 51°53' W 007°25'1010.1
2015-Jan-23 03:33N 51°56' W 007°09'1110.8
2015-Jan-23 02:33N 51°60' W 006°52'1111.3
2015-Jan-23 01:33N 52°03' W 006°35'1211.4
2015-Jan-23 00:33N 52°06' W 006°17'10 9.6
2015-Jan-22 23:33N 52°13' W 006°06'9 9.3
2015-Jan-22 22:33N 52°22' W 006°02'9 8.7
2015-Jan-22 21:33N 52°30' W 005°58'8 8.1
2015-Jan-22 20:33N 52°38' W 005°55'99 2.8
2015-Jan-21 08:26N 54°16' W 005°25'910.8
2015-Jan-21 07:33N 54°25' W 005°19'1211.9
2015-Jan-21 06:34N 54°36' W 005°25'1211.7
2015-Jan-21 05:33N 54°47' W 005°30'9 9.2
2015-Jan-21 04:31N 54°56' W 005°36'10 8.1
2015-Jan-21 03:17N 55°04' W 005°47'5 7.1
2015-Jan-21 02:33N 55°09' W 005°52'6 6.1
2015-Jan-21 01:33N 55°13' W 005°58'6 6.5
2015-Jan-21 00:33N 55°19' W 006°05'8 8.4
2015-Jan-20 23:33N 55°23' W 006°17'9 9.0
2015-Jan-20 22:33N 55°30' W 006°27'10 9.9
2015-Jan-20 21:33N 55°39' W 006°36'1110.9
2015-Jan-20 20:33N 55°49' W 006°44'1010.2
2015-Jan-20 19:33N 55°57' W 006°54'126 6.3
2015-Jan-19 23:33N 58°02' W 006°10'9 9.3
2015-Jan-19 22:33N 58°09' W 005°58'9 9.5
2015-Jan-19 21:33N 58°16' W 005°46'9 9.5
2015-Jan-19 20:33N 58°22' W 005°33'40 8.0
2015-Jan-19 15:33N 58°41' W 004°26'1010.0
2015-Jan-19 14:33N 58°41' W 004°07'1010.2
2015-Jan-19 13:33N 58°42' W 003°47'1110.7
2015-Jan-19 12:32N 58°42' W 003°26'1212.6
2015-Jan-19 11:33N 58°43' W 003°03'1211.5
2015-Jan-19 10:33N 58°43' W 002°40'  
2015-Jan-17 05:26N 57°48' E 010°42'8 9.0
2015-Jan-17 04:33N 57°44' E 010°55'1010.1
2015-Jan-17 03:33N 57°37' E 011°09'1010.0
2015-Jan-17 02:33N 57°30' E 011°23'9 9.5
2015-Jan-17 01:33N 57°22' E 011°31'10 9.8
2015-Jan-17 00:32N 57°12' E 011°37'1010.1
2015-Jan-16 23:32N 57°03' E 011°44'1010.0
2015-Jan-16 22:33N 56°54' E 011°50'10 9.9
2015-Jan-16 21:33N 56°44' E 011°55'10 9.8
2015-Jan-16 20:33N 56°35' E 011°60'1210.2
2015-Jan-16 19:22N 56°23' E 012°03'7 9.0
2015-Jan-16 18:33N 56°16' E 012°09'1010.1
2015-Jan-16 17:33N 56°10' E 012°24'1110.9
2015-Jan-16 16:33N 56°03' E 012°39'1111.0
2015-Jan-16 15:33N 55°53' E 012°45'1110.7
2015-Jan-16 14:33N 55°42' E 012°41'1110.6
2015-Jan-16 13:33N 55°32' E 012°43'1010.1
2015-Jan-16 12:33N 55°22' E 012°41'8 7.9
2015-Jan-16 11:33N 55°16' E 012°51'8 7.7
2015-Jan-16 10:33N 55°16' E 013°05'7 6.9
2015-Jan-16 09:33N 55°15' E 013°17'6 6.1
2015-Jan-16 08:33N 55°15' E 013°27'6 6.0
2015-Jan-16 07:33N 55°15' E 013°38'8 8.2
2015-Jan-16 06:33N 55°14' E 013°52'9 8.9
2015-Jan-16 05:33N 55°14' E 014°08'8 7.6
2015-Jan-16 04:33N 55°16' E 014°21'9 8.6
2015-Jan-16 03:33N 55°23' E 014°30'8 7.9
2015-Jan-16 02:33N 55°26' E 014°43'9 8.6
2015-Jan-16 01:33N 55°27' E 014°58'9 8.5
2015-Jan-16 00:33N 55°27' E 015°13'7 7.2
2015-Jan-15 23:33N 55°28' E 015°25'7 6.9
2015-Jan-15 22:33N 55°29' E 015°37'6 6.3
2015-Jan-15 21:33N 55°29' E 015°48'  
Track history (hours):
 
Tides and Currents Weather Stations Pressure Air Temp Water Temp Dewpoint Dewpoint Depression Visibility Wind Speed Wind Dir Waves Ship Positions

Hanseatic Scout

Last reported at 2015-Jan-24 17:16 UTC. Time now 2015-Jan-26 00:27 UTC.
Position N 51°24' W 007°38'.

Length 89 m; draft 5.7 m.

Type: Ship (hazmat cat C). MMSI: 304867000.

Date/timePositionNaut miles runAvg speedWind from/ knotsBaromVisibWave heightAir tempDewpointWater temp
2015-Jan-24 17:16N 51°24' W 007°38'810.6
2015-Jan-24 16:32N 51°29' W 007°47'1010.5
2015-Jan-24 15:33N 51°36' W 007°59'1110.6
2015-Jan-24 14:33N 51°44' W 008°11'8 8.4
2015-Jan-24 13:33N 51°51' W 008°19'2 1.6
2015-Jan-24 12:32N 51°52' W 008°20'0 0.0
2015-Jan-24 11:32N 51°52' W 008°20'0 0.0
2015-Jan-24 10:32N 51°52' W 008°20'0 0.0
2015-Jan-24 09:32N 51°52' W 008°20'0 0.0
2015-Jan-24 08:32N 51°52' W 008°20'0 0.0
2015-Jan-24 07:32N 51°52' W 008°20'0 0.0
2015-Jan-24 06:32N 51°52' W 008°20'0 0.0
2015-Jan-24 05:32N 51°52' W 008°20'0 0.0
2015-Jan-24 04:32N 51°52' W 008°20'0 0.0
2015-Jan-24 03:32N 51°52' W 008°20'0 0.0
2015-Jan-24 02:32N 51°52' W 008°20'0 0.0
2015-Jan-24 01:32N 51°52' W 008°20'0 0.0
2015-Jan-24 00:32N 51°52' W 008°20'0 0.0
2015-Jan-23 23:32N 51°52' W 008°20'0 0.0
2015-Jan-23 22:32N 51°52' W 008°20'0 0.0
2015-Jan-23 21:32N 51°52' W 008°20'0 0.0
2015-Jan-23 20:32N 51°52' W 008°20'0 0.0
2015-Jan-23 19:32N 51°52' W 008°20'0 0.0
2015-Jan-23 18:32N 51°52' W 008°20'0 0.0
2015-Jan-23 17:32N 51°52' W 008°20'0 0.0
2015-Jan-23 16:32N 51°52' W 008°20'0 0.0
2015-Jan-23 15:32N 51°52' W 008°20'0 0.0
2015-Jan-23 14:32N 51°52' W 008°20'0 0.0
2015-Jan-23 13:32N 51°52' W 008°20'0 0.0
2015-Jan-23 12:32N 51°52' W 008°20'0 0.0
2015-Jan-23 11:32N 51°52' W 008°20'0 0.0
2015-Jan-23 10:32N 51°52' W 008°20'0 0.0
2015-Jan-23 09:32N 51°52' W 008°20'2 2.2
2015-Jan-23 08:33N 51°51' W 008°17'8 8.0
2015-Jan-23 07:33N 51°45' W 008°08'9 8.8
2015-Jan-23 06:33N 51°47' W 007°54'9 9.2
2015-Jan-23 05:33N 51°50' W 007°40'10 9.7
2015-Jan-23 04:33N 51°53' W 007°25'1010.1
2015-Jan-23 03:33N 51°56' W 007°09'1110.8
2015-Jan-23 02:33N 51°60' W 006°52'1111.3
2015-Jan-23 01:33N 52°03' W 006°35'1211.4
2015-Jan-23 00:33N 52°06' W 006°17'10 9.6
2015-Jan-22 23:33N 52°13' W 006°06'9 9.3
2015-Jan-22 22:33N 52°22' W 006°02'9 8.7
2015-Jan-22 21:33N 52°30' W 005°58'8 8.1
2015-Jan-22 20:33N 52°38' W 005°55'99 2.8
2015-Jan-21 08:26N 54°16' W 005°25'910.8
2015-Jan-21 07:33N 54°25' W 005°19'1211.9
2015-Jan-21 06:34N 54°36' W 005°25'1211.7
2015-Jan-21 05:33N 54°47' W 005°30'9 9.2
2015-Jan-21 04:31N 54°56' W 005°36'10 8.1
2015-Jan-21 03:17N 55°04' W 005°47'5 7.1
2015-Jan-21 02:33N 55°09' W 005°52'6 6.1
2015-Jan-21 01:33N 55°13' W 005°58'6 6.5
2015-Jan-21 00:33N 55°19' W 006°05'8 8.4
2015-Jan-20 23:33N 55°23' W 006°17'9 9.0
2015-Jan-20 22:33N 55°30' W 006°27'10 9.9
2015-Jan-20 21:33N 55°39' W 006°36'1110.9
2015-Jan-20 20:33N 55°49' W 006°44'1010.2
2015-Jan-20 19:33N 55°57' W 006°54'126 6.3
2015-Jan-19 23:33N 58°02' W 006°10'9 9.3
2015-Jan-19 22:33N 58°09' W 005°58'9 9.5
2015-Jan-19 21:33N 58°16' W 005°46'9 9.5
2015-Jan-19 20:33N 58°22' W 005°33'40 8.0
2015-Jan-19 15:33N 58°41' W 004°26'1010.0
2015-Jan-19 14:33N 58°41' W 004°07'1010.2
2015-Jan-19 13:33N 58°42' W 003°47'1110.7
2015-Jan-19 12:32N 58°42' W 003°26'1212.6
2015-Jan-19 11:33N 58°43' W 003°03'1211.5
2015-Jan-19 10:33N 58°43' W 002°40'  
2015-Jan-17 05:26N 57°48' E 010°42'8 9.0
2015-Jan-17 04:33N 57°44' E 010°55'1010.1
2015-Jan-17 03:33N 57°37' E 011°09'1010.0
2015-Jan-17 02:33N 57°30' E 011°23'9 9.5
2015-Jan-17 01:33N 57°22' E 011°31'10 9.8
2015-Jan-17 00:32N 57°12' E 011°37'1010.1
2015-Jan-16 23:32N 57°03' E 011°44'1010.0
2015-Jan-16 22:33N 56°54' E 011°50'10 9.9
2015-Jan-16 21:33N 56°44' E 011°55'10 9.8
2015-Jan-16 20:33N 56°35' E 011°60'1210.2
2015-Jan-16 19:22N 56°23' E 012°03'7 9.0
2015-Jan-16 18:33N 56°16' E 012°09'1010.1
2015-Jan-16 17:33N 56°10' E 012°24'1110.9
2015-Jan-16 16:33N 56°03' E 012°39'1111.0
2015-Jan-16 15:33N 55°53' E 012°45'1110.7
2015-Jan-16 14:33N 55°42' E 012°41'1110.6
2015-Jan-16 13:33N 55°32' E 012°43'1010.1
2015-Jan-16 12:33N 55°22' E 012°41'8 7.9
2015-Jan-16 11:33N 55°16' E 012°51'8 7.7
2015-Jan-16 10:33N 55°16' E 013°05'7 6.9
2015-Jan-16 09:33N 55°15' E 013°17'6 6.1
2015-Jan-16 08:33N 55°15' E 013°27'6 6.0
2015-Jan-16 07:33N 55°15' E 013°38'8 8.2
2015-Jan-16 06:33N 55°14' E 013°52'9 8.9
2015-Jan-16 05:33N 55°14' E 014°08'8 7.6
2015-Jan-16 04:33N 55°16' E 014°21'9 8.6
2015-Jan-16 03:33N 55°23' E 014°30'8 7.9
2015-Jan-16 02:33N 55°26' E 014°43'9 8.6
2015-Jan-16 01:33N 55°27' E 014°58'9 8.5
2015-Jan-16 00:33N 55°27' E 015°13'7 7.2
2015-Jan-15 23:33N 55°28' E 015°25'7 6.9
2015-Jan-15 22:33N 55°29' E 015°37'6 6.3
2015-Jan-15 21:33N 55°29' E 015°48'  

Dump ship's entire track history